createdAt,value
2018-06-23T00:00:11.624Z,99.90
2018-06-23T00:02:39.741Z,99.90
2018-06-23T00:05:07.851Z,99.90
2018-06-23T00:07:36.033Z,99.90
2018-06-23T00:10:04.262Z,99.90
2018-06-23T00:12:32.389Z,99.90
2018-06-23T00:15:00.502Z,99.90
2018-06-23T00:17:28.678Z,99.90
2018-06-23T00:19:56.795Z,99.90
2018-06-23T00:22:24.911Z,99.90
2018-06-23T00:24:53.024Z,99.90
2018-06-23T00:27:21.157Z,99.90
2018-06-23T00:29:49.305Z,99.90
2018-06-23T00:32:17.434Z,99.90
2018-06-23T00:34:45.554Z,99.90
2018-06-23T00:37:13.669Z,99.90
2018-06-23T00:42:15.416Z,99.90
2018-06-23T00:47:11.473Z,99.90
2018-06-23T00:49:39.674Z,99.90
2018-06-23T00:52:07.793Z,99.90
2018-06-23T00:54:35.907Z,99.90
2018-06-23T00:57:04.034Z,99.90
2018-06-23T00:59:43.031Z,99.90
2018-06-23T01:02:11.202Z,99.90
2018-06-23T01:04:39.316Z,99.90
2018-06-23T01:07:08.518Z,99.90
2018-06-23T01:09:36.676Z,99.90
2018-06-23T01:12:05.390Z,99.90
2018-06-23T01:14:33.494Z,99.90
2018-06-23T01:17:01.641Z,99.90
2018-06-23T01:19:29.798Z,99.90
2018-06-23T01:21:58.133Z,99.90
2018-06-23T01:24:27.411Z,99.90
2018-06-23T01:26:55.523Z,99.90
2018-06-23T01:29:23.633Z,99.90
2018-06-23T01:31:51.785Z,99.90
2018-06-23T01:34:19.889Z,99.90
2018-06-23T01:36:48.010Z,99.90
2018-06-23T01:39:16.126Z,99.90
2018-06-23T01:41:44.244Z,99.90
2018-06-23T01:44:12.338Z,99.90
2018-06-23T01:46:40.458Z,99.90
2018-06-23T01:49:08.573Z,99.90
2018-06-23T01:51:36.837Z,99.90
2018-06-23T01:54:05.330Z,99.90
2018-06-23T01:56:33.594Z,99.90
2018-06-23T01:59:01.887Z,99.90
2018-06-23T02:01:29.993Z,99.90
2018-06-23T02:06:26.051Z,99.90
2018-06-23T02:08:54.161Z,99.90
2018-06-23T02:11:22.257Z,99.90
2018-06-23T02:13:56.528Z,99.90
2018-06-23T02:16:30.225Z,99.90
2018-06-23T02:19:03.795Z,99.90
2018-06-23T02:21:37.261Z,99.90
2018-06-23T02:24:10.953Z,99.90
2018-06-23T02:26:44.370Z,99.90
2018-06-23T02:29:18.027Z,99.90
2018-06-23T02:31:51.487Z,99.90
2018-06-23T02:34:24.986Z,99.90
2018-06-23T02:36:53.082Z,99.90
2018-06-23T02:39:21.202Z,99.90
2018-06-23T02:41:49.316Z,99.90
2018-06-23T02:44:17.447Z,99.90
2018-06-23T02:46:45.658Z,99.90
2018-06-23T02:49:13.774Z,99.90
2018-06-23T02:51:41.901Z,99.90
2018-06-23T02:54:10.028Z,99.90
2018-06-23T02:56:38.142Z,99.90
2018-06-23T02:59:06.263Z,99.90
2018-06-23T03:01:34.489Z,99.90
2018-06-23T03:04:02.629Z,99.90
2018-06-23T03:08:58.703Z,99.90
2018-06-23T03:11:26.836Z,99.90
2018-06-23T03:13:54.977Z,99.90
2018-06-23T03:16:23.094Z,99.90
2018-06-23T03:18:51.246Z,99.90
2018-06-23T03:21:19.383Z,99.90
2018-06-23T03:23:47.585Z,99.90
2018-06-23T03:26:15.894Z,99.90
2018-06-23T03:28:44.034Z,99.90
2018-06-23T03:31:12.163Z,99.90
2018-06-23T03:33:40.375Z,99.90
2018-06-23T03:36:08.497Z,99.90
2018-06-23T03:38:36.613Z,99.90
2018-06-23T03:41:04.766Z,99.90
2018-06-23T03:43:32.889Z,99.90
2018-06-23T03:46:01.045Z,99.90
2018-06-23T03:48:29.175Z,99.90
2018-06-23T03:50:57.293Z,99.90
2018-06-23T03:53:25.425Z,99.90
2018-06-23T03:55:53.658Z,99.90
2018-06-23T03:58:21.780Z,99.90
2018-06-23T04:00:56.513Z,99.90
2018-06-23T04:03:26.137Z,99.90
2018-06-23T04:05:54.268Z,99.90
2018-06-23T04:08:22.394Z,99.90
2018-06-23T04:10:50.524Z,99.90
2018-06-23T04:13:18.692Z,99.90
2018-06-23T04:15:46.822Z,99.90
2018-06-23T04:18:14.958Z,99.90
2018-06-23T04:20:43.082Z,99.90
2018-06-23T04:23:11.195Z,99.90
2018-06-23T04:25:39.333Z,99.90
2018-06-23T04:28:07.448Z,99.90
2018-06-23T04:30:35.570Z,99.90
2018-06-23T04:33:03.681Z,99.90
2018-06-23T04:35:31.798Z,99.90
2018-06-23T04:37:59.931Z,99.90
2018-06-23T04:42:56.043Z,99.90
2018-06-23T04:45:24.166Z,99.90
2018-06-23T04:47:52.286Z,99.90
2018-06-23T04:50:20.410Z,99.90
2018-06-23T04:52:48.517Z,99.90
2018-06-23T04:55:16.658Z,99.90
2018-06-23T04:57:44.913Z,99.90
2018-06-23T05:00:13.111Z,99.90
2018-06-23T05:02:41.209Z,99.90
2018-06-23T05:05:09.318Z,99.90
2018-06-23T05:07:37.421Z,99.90
2018-06-23T05:10:05.574Z,99.90
2018-06-23T05:12:33.763Z,99.90
2018-06-23T05:15:01.880Z,99.90
2018-06-23T05:17:29.982Z,99.90
2018-06-23T05:19:58.094Z,99.90
2018-06-23T05:22:26.197Z,99.90
2018-06-23T05:24:54.350Z,99.90
2018-06-23T05:27:22.462Z,99.90
2018-06-23T05:29:50.565Z,99.90
2018-06-23T05:32:18.737Z,99.90
2018-06-23T05:34:46.842Z,99.90
2018-06-23T05:37:14.974Z,99.90
2018-06-23T05:39:43.169Z,99.90
2018-06-23T05:42:11.266Z,99.90
2018-06-23T05:44:39.413Z,99.90
2018-06-23T05:47:07.505Z,99.90
2018-06-23T05:49:35.647Z,99.90
2018-06-23T05:52:03.780Z,99.90
2018-06-23T05:54:31.978Z,99.90
2018-06-23T05:57:00.258Z,99.90
2018-06-23T05:59:28.388Z,99.90
2018-06-23T06:01:56.518Z,99.90
2018-06-23T06:04:24.641Z,99.90
2018-06-23T06:06:52.782Z,99.90
2018-06-23T06:09:20.897Z,99.90
2018-06-23T06:11:49.017Z,99.90
2018-06-23T06:14:17.183Z,99.90
2018-06-23T06:17:23.645Z,99.90
2018-06-23T06:19:55.006Z,99.90
2018-06-23T06:22:24.554Z,99.90
2018-06-23T06:24:52.712Z,99.90
2018-06-23T06:27:20.829Z,99.90
2018-06-23T06:29:49.448Z,99.90
2018-06-23T06:32:17.697Z,99.90
2018-06-23T06:34:45.828Z,99.90
2018-06-23T06:37:13.954Z,99.90
2018-06-23T06:39:42.257Z,99.90
2018-06-23T06:42:10.563Z,99.90
2018-06-23T06:44:38.745Z,99.90
2018-06-23T06:47:06.806Z,99.90
2018-06-23T06:49:35.025Z,99.90
2018-06-23T06:52:03.174Z,99.90
2018-06-23T06:54:31.289Z,99.90
2018-06-23T06:56:59.436Z,99.90
2018-06-23T06:59:27.528Z,99.90
2018-06-23T07:01:55.658Z,99.90
2018-06-23T07:04:23.782Z,99.90
2018-06-23T07:06:51.925Z,99.90
2018-06-23T07:09:20.046Z,99.90
2018-06-23T07:11:48.195Z,99.90
2018-06-23T07:16:44.237Z,99.90
2018-06-23T07:19:12.341Z,99.90
2018-06-23T07:21:40.457Z,99.90
2018-06-23T07:24:08.622Z,99.90
2018-06-23T07:26:37.023Z,99.90
2018-06-23T07:29:06.110Z,99.90
2018-06-23T07:31:34.510Z,99.90
2018-06-23T07:34:03.284Z,99.90
2018-06-23T07:36:31.441Z,99.90
2018-06-23T07:38:59.953Z,99.90
2018-06-23T07:41:28.075Z,99.90
2018-06-23T07:43:56.230Z,99.90
2018-06-23T07:46:24.333Z,99.90
2018-06-23T07:48:52.457Z,99.90
2018-06-23T07:51:20.617Z,99.90
2018-06-23T07:53:48.733Z,99.90
2018-06-23T07:56:16.917Z,99.90
2018-06-23T07:58:45.019Z,99.90
2018-06-23T08:01:13.200Z,99.90
2018-06-23T08:03:41.357Z,99.90
2018-06-23T08:06:11.854Z,99.90
2018-06-23T08:08:39.958Z,99.90
2018-06-23T08:11:08.122Z,99.90
2018-06-23T08:13:36.237Z,99.90
2018-06-23T08:16:04.965Z,99.90
2018-06-23T08:18:33.095Z,99.90
2018-06-23T08:21:01.178Z,99.90
2018-06-23T08:23:29.302Z,99.90
2018-06-23T08:25:57.425Z,99.90
2018-06-23T08:28:25.574Z,99.90
2018-06-23T08:30:53.699Z,99.90
2018-06-23T08:33:21.797Z,99.90
2018-06-23T08:35:49.940Z,99.90
2018-06-23T08:38:18.118Z,99.90
2018-06-23T08:40:46.352Z,99.90
2018-06-23T08:43:14.464Z,99.90
2018-06-23T08:45:42.603Z,99.90
2018-06-23T08:48:10.714Z,99.90
2018-06-23T08:50:38.931Z,99.90
2018-06-23T08:53:07.042Z,99.90
2018-06-23T08:55:36.877Z,99.80
2018-06-23T08:58:05.134Z,99.90
2018-06-23T09:00:33.245Z,99.70
2018-06-23T09:03:01.375Z,97.80
2018-06-23T09:05:29.481Z,98.70
2018-06-23T09:07:57.593Z,97.90
2018-06-23T09:10:25.698Z,96.30
2018-06-23T09:12:53.829Z,96.00
2018-06-23T09:15:21.930Z,96.90
2018-06-23T09:17:50.054Z,96.10
2018-06-23T09:20:18.194Z,95.40
2018-06-23T09:22:46.746Z,94.70
2018-06-23T09:25:14.888Z,96.80
2018-06-23T09:27:43.325Z,95.40
2018-06-23T09:30:12.289Z,96.10
2018-06-23T09:32:40.390Z,95.50
2018-06-23T09:35:08.864Z,96.20
2018-06-23T09:37:37.000Z,97.00
2018-06-23T09:40:05.134Z,97.60
2018-06-23T09:42:33.245Z,98.70
2018-06-23T09:45:01.354Z,98.60
2018-06-23T09:47:29.461Z,98.50
2018-06-23T09:49:57.626Z,98.60
2018-06-23T09:52:25.737Z,99.00
2018-06-23T09:54:53.842Z,99.90
2018-06-23T09:57:22.117Z,99.80
2018-06-23T09:59:50.217Z,99.90
2018-06-23T10:02:18.616Z,99.90
2018-06-23T10:04:47.502Z,98.10
2018-06-23T10:07:15.660Z,97.60
2018-06-23T10:09:43.727Z,98.40
2018-06-23T10:12:11.830Z,97.50
2018-06-23T10:14:39.942Z,97.70
2018-06-23T10:17:08.052Z,99.10
2018-06-23T10:19:36.168Z,99.40
2018-06-23T10:22:04.281Z,98.50
2018-06-23T10:24:32.458Z,98.60
2018-06-23T10:27:00.578Z,99.90
2018-06-23T10:29:28.758Z,98.90
2018-06-23T10:31:56.877Z,97.60
2018-06-23T10:34:24.990Z,97.50
2018-06-23T10:36:53.119Z,97.80
2018-06-23T10:39:21.229Z,98.40
2018-06-23T10:41:49.355Z,98.80
2018-06-23T10:44:17.493Z,98.80
2018-06-23T10:46:45.597Z,99.00
2018-06-23T10:49:13.706Z,99.90
2018-06-23T10:51:41.825Z,99.50
2018-06-23T10:54:09.938Z,99.60
2018-06-23T10:56:38.054Z,99.20
2018-06-23T10:59:06.228Z,98.60
2018-06-23T11:01:34.338Z,98.40
2018-06-23T11:04:02.471Z,99.30
2018-06-23T11:06:30.577Z,99.90
2018-06-23T11:08:58.720Z,99.90
2018-06-23T11:11:26.854Z,99.50
2018-06-23T11:13:55.005Z,99.90
2018-06-23T11:16:23.138Z,99.90
2018-06-23T11:18:51.308Z,99.90
2018-06-23T11:21:19.402Z,99.90
2018-06-23T11:23:47.520Z,99.90
2018-06-23T11:26:15.686Z,99.90
2018-06-23T11:28:43.806Z,99.40
2018-06-23T11:31:11.906Z,98.80
2018-06-23T11:33:40.060Z,98.90
2018-06-23T11:36:08.166Z,99.10
2018-06-23T11:38:36.477Z,99.40
2018-06-23T11:41:04.601Z,98.90
2018-06-23T11:43:32.729Z,99.70
2018-06-23T11:46:00.845Z,99.00
2018-06-23T11:48:28.958Z,98.60
2018-06-23T11:50:57.142Z,99.30
2018-06-23T11:53:25.261Z,99.70
2018-06-23T11:55:53.395Z,99.40
2018-06-23T11:58:21.534Z,98.80
2018-06-23T12:00:49.649Z,99.90
2018-06-23T12:03:18.021Z,99.90
2018-06-23T12:05:46.018Z,98.90
2018-06-23T12:08:14.138Z,99.40
2018-06-23T12:10:42.299Z,98.90
2018-06-23T12:13:10.425Z,98.70
2018-06-23T12:15:38.566Z,99.90
2018-06-23T12:18:06.690Z,99.90
2018-06-23T12:20:35.174Z,99.00
2018-06-23T12:23:03.347Z,98.80
2018-06-23T12:25:31.464Z,98.40
2018-06-23T12:27:59.601Z,98.70
2018-06-23T12:30:27.775Z,98.80
2018-06-23T12:32:55.865Z,99.50
2018-06-23T12:35:23.970Z,98.40
2018-06-23T12:37:52.099Z,98.80
2018-06-23T12:40:20.226Z,99.20
2018-06-23T12:42:48.354Z,99.20
2018-06-23T12:45:16.475Z,99.90
2018-06-23T12:47:44.594Z,99.80
2018-06-23T12:50:12.710Z,99.90
2018-06-23T12:52:40.876Z,99.00
2018-06-23T12:55:08.982Z,99.60
2018-06-23T12:57:37.242Z,99.90
2018-06-23T13:00:06.645Z,99.50
2018-06-23T13:02:34.749Z,99.90
2018-06-23T13:05:03.006Z,99.90
2018-06-23T13:07:31.111Z,99.90
2018-06-23T13:09:59.225Z,99.00
2018-06-23T13:12:27.325Z,98.70
2018-06-23T13:14:55.452Z,99.10
2018-06-23T13:17:23.550Z,99.30
2018-06-23T13:19:51.695Z,99.20
2018-06-23T13:22:19.837Z,98.60
2018-06-23T13:24:47.981Z,99.00
2018-06-23T13:27:16.088Z,99.00
2018-06-23T13:29:44.238Z,99.90
2018-06-23T13:32:12.403Z,99.00
2018-06-23T13:34:40.466Z,99.20
2018-06-23T13:37:08.583Z,98.60
2018-06-23T13:39:36.693Z,99.00
2018-06-23T13:42:04.941Z,98.00
2018-06-23T13:44:33.056Z,98.80
2018-06-23T13:47:01.176Z,98.70
2018-06-23T13:49:29.285Z,99.50
2018-06-23T13:51:57.393Z,99.30
2018-06-23T13:54:25.719Z,99.40
2018-06-23T13:56:54.010Z,99.50
2018-06-23T13:59:22.121Z,99.80
2018-06-23T14:01:50.221Z,99.10
2018-06-23T14:04:18.344Z,99.30
2018-06-23T14:06:46.474Z,99.90
2018-06-23T14:09:14.593Z,99.90
2018-06-23T14:11:42.727Z,99.90
2018-06-23T14:14:10.878Z,99.90
2018-06-23T14:16:39.234Z,99.90
2018-06-23T14:19:07.718Z,98.40
2018-06-23T14:21:35.861Z,98.40
2018-06-23T14:24:03.978Z,98.50
2018-06-23T14:26:32.249Z,98.40
2018-06-23T14:29:01.045Z,97.40
2018-06-23T14:31:29.213Z,96.70
2018-06-23T14:33:57.303Z,96.20
2018-06-23T14:36:25.439Z,95.80
2018-06-23T14:38:53.633Z,94.90
2018-06-23T14:41:21.987Z,94.90
2018-06-23T14:43:50.093Z,95.30
2018-06-23T14:46:18.200Z,95.80
2018-06-23T14:48:46.433Z,94.50
2018-06-23T14:51:14.574Z,95.30
2018-06-23T14:53:43.748Z,94.40
2018-06-23T14:56:11.915Z,95.20
2018-06-23T14:58:40.052Z,94.30
2018-06-23T15:01:08.149Z,94.40
2018-06-23T15:03:36.253Z,95.10
2018-06-23T15:06:06.381Z,94.90
2018-06-23T15:08:46.086Z,96.10
2018-06-23T15:11:25.770Z,95.30
2018-06-23T15:13:53.869Z,96.10
2018-06-23T15:16:22.001Z,95.90
2018-06-23T15:18:50.109Z,96.00
2018-06-23T15:21:18.217Z,96.10
2018-06-23T15:23:46.330Z,95.50
2018-06-23T15:26:14.437Z,95.30
2018-06-23T15:28:43.010Z,94.90
2018-06-23T15:31:11.125Z,93.70
2018-06-23T15:33:39.287Z,94.30
2018-06-23T15:36:07.345Z,94.10
2018-06-23T15:41:03.358Z,94.60
2018-06-23T15:43:31.469Z,94.50
2018-06-23T15:45:59.631Z,94.10
2018-06-23T15:48:27.763Z,92.20
2018-06-23T15:50:55.889Z,93.10
2018-06-23T15:53:24.018Z,92.70
2018-06-23T15:55:52.130Z,93.80
2018-06-23T15:58:20.245Z,93.20
2018-06-23T16:00:48.385Z,93.50
2018-06-23T16:03:16.489Z,93.10
2018-06-23T16:05:44.615Z,93.40
2018-06-23T16:08:12.813Z,93.50
2018-06-23T16:10:41.047Z,93.80
2018-06-23T16:13:09.137Z,94.40
2018-06-23T16:15:37.268Z,93.90
2018-06-23T16:18:05.380Z,94.60
2018-06-23T16:20:33.510Z,94.70
2018-06-23T16:23:01.689Z,94.80
2018-06-23T16:25:29.797Z,94.50
2018-06-23T16:27:57.917Z,94.30
2018-06-23T16:30:26.050Z,94.10
2018-06-23T16:32:54.157Z,94.60
2018-06-23T16:35:22.492Z,93.30
2018-06-23T16:37:50.402Z,94.20
2018-06-23T16:40:18.544Z,93.20
2018-06-23T16:45:14.821Z,92.60
2018-06-23T16:47:43.049Z,91.70
2018-06-23T16:50:11.165Z,92.00
2018-06-23T16:52:39.298Z,91.70
2018-06-23T16:55:07.422Z,92.80
2018-06-23T16:57:35.552Z,92.80
2018-06-23T17:00:04.291Z,93.40
2018-06-23T17:02:32.415Z,92.50
2018-06-23T17:05:00.553Z,91.80
2018-06-23T17:07:28.678Z,92.00
2018-06-23T17:09:56.788Z,91.90
2018-06-23T17:12:25.682Z,92.50
2018-06-23T17:14:53.846Z,92.40
2018-06-23T17:19:50.024Z,93.30
2018-06-23T17:22:18.151Z,93.70
2018-06-23T17:24:46.265Z,93.70
2018-06-23T17:27:14.469Z,93.40
2018-06-23T17:29:42.557Z,93.60
2018-06-23T17:32:10.673Z,93.70
2018-06-23T17:37:06.914Z,94.40
2018-06-23T17:39:35.034Z,94.00
2018-06-23T17:42:03.193Z,94.20
2018-06-23T17:44:31.392Z,94.10
2018-06-23T17:46:59.521Z,94.10
2018-06-23T17:49:27.664Z,93.10
2018-06-23T17:51:55.822Z,92.90
2018-06-23T17:54:23.933Z,92.80
2018-06-23T17:56:52.058Z,93.60
2018-06-23T17:59:20.204Z,92.90
2018-06-23T18:01:48.345Z,93.80
2018-06-23T18:04:16.471Z,94.40
2018-06-23T18:06:44.579Z,94.10
2018-06-23T18:09:12.762Z,94.10
2018-06-23T18:11:40.893Z,94.00
2018-06-23T18:14:09.474Z,93.90
2018-06-23T18:16:37.685Z,93.80
2018-06-23T18:19:06.149Z,93.80
2018-06-23T18:21:34.321Z,94.30
2018-06-23T18:24:02.455Z,95.10
2018-06-23T18:26:30.778Z,95.10
2018-06-23T18:28:59.149Z,94.50
2018-06-23T18:31:27.283Z,94.60
2018-06-23T18:33:55.426Z,94.20
2018-06-23T18:36:23.558Z,94.30
2018-06-23T18:38:51.665Z,95.50
2018-06-23T18:41:19.813Z,94.60
2018-06-23T18:43:47.973Z,95.10
2018-06-23T18:46:16.098Z,95.10
2018-06-23T18:48:44.231Z,95.20
2018-06-23T18:51:12.374Z,95.00
2018-06-23T18:53:40.571Z,94.80
2018-06-23T18:56:08.778Z,95.20
2018-06-23T18:58:36.901Z,96.10
2018-06-23T19:01:05.018Z,95.90
2018-06-23T19:03:33.140Z,96.10
2018-06-23T19:06:01.265Z,96.20
2018-06-23T19:08:29.403Z,96.30
2018-06-23T19:10:57.526Z,96.30
2018-06-23T19:13:25.749Z,97.20
2018-06-23T19:18:21.787Z,97.10
2018-06-23T19:20:49.901Z,97.20
2018-06-23T19:23:18.031Z,98.00
2018-06-23T19:25:46.147Z,98.60
2018-06-23T19:28:14.305Z,98.40
2018-06-23T19:30:42.451Z,98.50
2018-06-23T19:33:10.576Z,98.90
2018-06-23T19:35:38.717Z,99.00
2018-06-23T19:38:06.798Z,98.90
2018-06-23T19:40:34.936Z,99.50
2018-06-23T19:43:03.170Z,99.50
2018-06-23T19:47:59.181Z,99.70
2018-06-23T19:50:27.314Z,99.70
2018-06-23T19:52:55.430Z,99.40
2018-06-23T19:55:23.549Z,99.90
2018-06-23T19:57:51.705Z,99.90
2018-06-23T20:00:19.818Z,99.90
2018-06-23T20:02:47.945Z,99.90
2018-06-23T20:05:16.192Z,99.90
2018-06-23T20:07:44.354Z,99.90
2018-06-23T20:10:12.574Z,99.90
2018-06-23T20:12:40.713Z,99.90
2018-06-23T20:15:08.910Z,99.90
2018-06-23T20:17:37.043Z,99.90
2018-06-23T20:20:05.996Z,99.90
2018-06-23T20:22:34.106Z,99.90
2018-06-23T20:25:02.243Z,99.90
2018-06-23T20:27:30.366Z,99.90
2018-06-23T20:29:58.522Z,99.90
2018-06-23T20:32:26.639Z,99.90
2018-06-23T20:34:54.774Z,99.90
2018-06-23T20:37:22.926Z,99.90
2018-06-23T20:39:51.057Z,99.90
2018-06-23T20:42:19.170Z,99.90
2018-06-23T20:44:47.303Z,99.90
2018-06-23T20:47:15.447Z,99.90
2018-06-23T20:49:43.580Z,99.90
2018-06-23T20:54:39.659Z,99.90
2018-06-23T20:57:07.803Z,99.90
2018-06-23T20:59:35.938Z,99.90
2018-06-23T21:02:04.058Z,99.90
2018-06-23T21:04:32.183Z,99.90
2018-06-23T21:07:00.327Z,99.90
2018-06-23T21:09:28.467Z,99.90
2018-06-23T21:11:56.578Z,99.90
2018-06-23T21:14:24.827Z,99.90
2018-06-23T21:16:53.300Z,99.90
2018-06-23T21:19:21.273Z,99.90
2018-06-23T21:21:49.381Z,99.90
2018-06-23T21:24:17.501Z,99.90
2018-06-23T21:26:45.621Z,99.90
2018-06-23T21:29:13.755Z,99.90
2018-06-23T21:31:41.913Z,99.90
2018-06-23T21:34:10.017Z,99.90
2018-06-23T21:36:38.135Z,99.90
2018-06-23T21:39:07.020Z,99.90
2018-06-23T21:41:35.165Z,99.90
2018-06-23T21:44:03.334Z,99.90
2018-06-23T21:46:31.454Z,99.90
2018-06-23T21:48:59.582Z,99.90
2018-06-23T21:51:27.773Z,99.90
2018-06-23T21:53:55.934Z,99.90
2018-06-23T21:56:24.205Z,99.90
2018-06-23T21:58:52.321Z,99.90
2018-06-23T22:01:20.433Z,99.90
2018-06-23T22:03:48.553Z,99.90
2018-06-23T22:06:16.684Z,99.90
2018-06-23T22:08:44.806Z,99.90
2018-06-23T22:11:13.363Z,99.90
2018-06-23T22:13:41.486Z,99.90
2018-06-23T22:16:09.599Z,99.90
2018-06-23T22:18:37.717Z,99.90
2018-06-23T22:21:05.879Z,99.90
2018-06-23T22:23:34.022Z,99.90
2018-06-23T22:26:02.149Z,99.90
2018-06-23T22:28:30.270Z,99.90
2018-06-23T22:30:58.418Z,99.90
2018-06-23T22:33:26.541Z,99.90
2018-06-23T22:35:54.670Z,99.90
2018-06-23T22:38:22.994Z,99.90
2018-06-23T22:40:51.157Z,99.90
2018-06-23T22:43:19.273Z,99.90
2018-06-23T22:45:47.403Z,99.90
2018-06-23T22:48:15.522Z,99.90
2018-06-23T22:50:43.637Z,99.90
2018-06-23T22:53:11.742Z,99.90
2018-06-23T22:55:39.845Z,99.90
2018-06-23T22:58:07.981Z,99.90
2018-06-23T23:00:36.101Z,99.90
2018-06-23T23:03:04.310Z,99.90
2018-06-23T23:05:32.432Z,99.90
2018-06-23T23:08:00.526Z,99.90
2018-06-23T23:10:29.052Z,99.90
2018-06-23T23:12:57.248Z,99.90
2018-06-23T23:15:25.317Z,99.90
2018-06-23T23:17:53.403Z,99.90
2018-06-23T23:20:21.522Z,99.90
2018-06-23T23:22:49.629Z,99.90
2018-06-23T23:25:17.750Z,99.90
2018-06-23T23:30:13.813Z,99.90
2018-06-23T23:32:41.905Z,99.90
2018-06-23T23:35:10.114Z,99.90
2018-06-23T23:37:38.222Z,99.90
2018-06-23T23:40:06.345Z,99.90
2018-06-23T23:42:34.457Z,99.90
2018-06-23T23:45:02.586Z,99.90
2018-06-23T23:47:30.694Z,99.90
2018-06-23T23:49:58.823Z,99.90
2018-06-23T23:52:26.934Z,99.90
2018-06-23T23:54:55.078Z,99.90
2018-06-23T23:57:23.214Z,99.90
2018-06-23T23:59:51.337Z,99.90
